< < Back
Terminal Aerodrome Forecast


Current Version              Previous Versions:   1  2  3  4  5  6  7  8  9  

Terminal Aerodrome Forecast

283
FTUS42 KCAE 280900 AAA
TAFAGS
TAF AMD
KAGS 280959Z 2810/0106 04008KT P6SM BKN150
     FM281400 06012G20KT P6SM BKN100
     FM282300 06008KT P6SM VCSH OVC030=



Latest METAR

459
SAUS70 KWBC 281400 RRD
MTRAGS
METAR KAGS 281353Z 06011KT 10SM CLR 04/M02 A3063 RMK AO2 SLP371
T00441022


USA.gov is the U.S. government's official web portal to all federal, state and local government web resources and services.